sensor_id;sensor_type;location;lat;lon;timestamp;P1;durP1;ratioP1;P2;durP2;ratioP2
66272;SDS011;58450;52.150;4.466;2023-07-13T00:02:26;10.98;;;2.30;;
66272;SDS011;58450;52.150;4.466;2023-07-13T00:04:55;11.82;;;2.28;;
66272;SDS011;58450;52.150;4.466;2023-07-13T00:07:23;7.63;;;1.98;;
66272;SDS011;58450;52.150;4.466;2023-07-13T00:09:51;8.43;;;2.10;;
66272;SDS011;58450;52.150;4.466;2023-07-13T00:12:23;9.85;;;2.10;;
66272;SDS011;58450;52.150;4.466;2023-07-13T00:14:55;9.10;;;1.90;;
66272;SDS011;58450;52.150;4.466;2023-07-13T00:17:24;10.23;;;2.10;;
66272;SDS011;58450;52.150;4.466;2023-07-13T00:19:52;9.13;;;2.10;;
66272;SDS011;58450;52.150;4.466;2023-07-13T00:22:23;9.30;;;1.90;;
66272;SDS011;58450;52.150;4.466;2023-07-13T00:24:52;8.80;;;2.00;;
66272;SDS011;58450;52.150;4.466;2023-07-13T00:27:22;7.70;;;1.95;;
66272;SDS011;58450;52.150;4.466;2023-07-13T00:29:52;10.07;;;1.90;;
66272;SDS011;58450;52.150;4.466;2023-07-13T00:32:20;7.20;;;1.85;;
66272;SDS011;58450;52.150;4.466;2023-07-13T00:34:48;9.57;;;1.92;;
66272;SDS011;58450;52.150;4.466;2023-07-13T00:37:15;10.95;;;2.33;;
66272;SDS011;58450;52.150;4.466;2023-07-13T00:39:45;8.00;;;2.38;;
66272;SDS011;58450;52.150;4.466;2023-07-13T00:42:12;7.90;;;1.60;;
66272;SDS011;58450;52.150;4.466;2023-07-13T00:44:40;7.22;;;1.60;;
66272;SDS011;58450;52.150;4.466;2023-07-13T00:47:08;6.32;;;1.77;;
66272;SDS011;58450;52.150;4.466;2023-07-13T00:49:36;8.80;;;1.70;;
66272;SDS011;58450;52.150;4.466;2023-07-13T00:52:05;9.45;;;1.38;;
66272;SDS011;58450;52.150;4.466;2023-07-13T00:54:36;7.38;;;1.73;;
66272;SDS011;58450;52.150;4.466;2023-07-13T00:57:12;7.82;;;1.50;;
66272;SDS011;58450;52.150;4.466;2023-07-13T00:59:48;7.10;;;1.40;;
66272;SDS011;58450;52.150;4.466;2023-07-13T01:02:22;5.90;;;1.48;;
66272;SDS011;58450;52.150;4.466;2023-07-13T01:04:52;4.35;;;1.40;;
66272;SDS011;58450;52.150;4.466;2023-07-13T01:07:19;5.07;;;1.20;;
66272;SDS011;58450;52.150;4.466;2023-07-13T01:09:47;3.72;;;1.20;;
66272;SDS011;58450;52.150;4.466;2023-07-13T01:12:16;4.53;;;1.10;;
66272;SDS011;58450;52.150;4.466;2023-07-13T01:14:44;3.03;;;0.93;;
66272;SDS011;58450;52.150;4.466;2023-07-13T01:17:19;5.38;;;1.30;;
66272;SDS011;58450;52.150;4.466;2023-07-13T01:19:47;4.88;;;1.38;;
66272;SDS011;58450;52.150;4.466;2023-07-13T01:22:18;2.85;;;1.20;;
66272;SDS011;58450;52.150;4.466;2023-07-13T01:24:51;2.45;;;1.08;;
66272;SDS011;58450;52.150;4.466;2023-07-13T01:27:21;5.32;;;1.40;;
66272;SDS011;58450;52.150;4.466;2023-07-13T01:29:52;3.05;;;1.05;;
66272;SDS011;58450;52.150;4.466;2023-07-13T01:32:27;5.03;;;1.50;;
66272;SDS011;58450;52.150;4.466;2023-07-13T01:34:57;3.05;;;1.20;;
66272;SDS011;58450;52.150;4.466;2023-07-13T01:37:26;3.85;;;1.38;;
66272;SDS011;58450;52.150;4.466;2023-07-13T01:40:01;3.30;;;1.10;;
66272;SDS011;58450;52.150;4.466;2023-07-13T01:42:30;4.78;;;1.05;;
66272;SDS011;58450;52.150;4.466;2023-07-13T01:44:58;3.33;;;1.33;;
66272;SDS011;58450;52.150;4.466;2023-07-13T01:47:26;3.78;;;1.13;;
66272;SDS011;58450;52.150;4.466;2023-07-13T01:49:54;4.97;;;1.33;;
66272;SDS011;58450;52.150;4.466;2023-07-13T01:52:22;3.47;;;1.00;;
66272;SDS011;58450;52.150;4.466;2023-07-13T01:54:52;4.10;;;0.85;;
66272;SDS011;58450;52.150;4.466;2023-07-13T01:57:19;2.67;;;1.20;;
66272;SDS011;58450;52.150;4.466;2023-07-13T01:59:47;6.30;;;1.20;;
66272;SDS011;58450;52.150;4.466;2023-07-13T02:02:15;4.25;;;1.40;;
66272;SDS011;58450;52.150;4.466;2023-07-13T02:04:43;4.10;;;1.30;;
66272;SDS011;58450;52.150;4.466;2023-07-13T02:07:11;4.80;;;1.15;;
66272;SDS011;58450;52.150;4.466;2023-07-13T02:09:38;3.15;;;1.15;;
66272;SDS011;58450;52.150;4.466;2023-07-13T02:12:08;3.67;;;1.15;;
66272;SDS011;58450;52.150;4.466;2023-07-13T02:14:36;2.72;;;1.23;;
66272;SDS011;58450;52.150;4.466;2023-07-13T02:17:04;3.33;;;1.20;;
66272;SDS011;58450;52.150;4.466;2023-07-13T02:19:32;5.45;;;1.33;;
66272;SDS011;58450;52.150;4.466;2023-07-13T02:22:00;6.28;;;1.20;;
66272;SDS011;58450;52.150;4.466;2023-07-13T02:24:27;4.35;;;1.27;;
66272;SDS011;58450;52.150;4.466;2023-07-13T02:26:55;3.20;;;1.20;;
66272;SDS011;58450;52.150;4.466;2023-07-13T02:29:24;4.20;;;1.27;;
66272;SDS011;58450;52.150;4.466;2023-07-13T02:31:52;5.78;;;1.42;;
66272;SDS011;58450;52.150;4.466;2023-07-13T02:34:20;3.90;;;1.08;;
66272;SDS011;58450;52.150;4.466;2023-07-13T02:36:48;5.90;;;1.20;;
66272;SDS011;58450;52.150;4.466;2023-07-13T02:39:16;3.95;;;1.10;;
66272;SDS011;58450;52.150;4.466;2023-07-13T02:41:43;3.10;;;1.10;;
66272;SDS011;58450;52.150;4.466;2023-07-13T02:44:12;3.28;;;1.30;;
66272;SDS011;58450;52.150;4.466;2023-07-13T02:46:41;4.53;;;1.30;;
66272;SDS011;58450;52.150;4.466;2023-07-13T02:49:09;3.55;;;1.33;;
66272;SDS011;58450;52.150;4.466;2023-07-13T02:51:37;5.72;;;1.65;;
66272;SDS011;58450;52.150;4.466;2023-07-13T02:54:05;3.20;;;1.15;;
66272;SDS011;58450;52.150;4.466;2023-07-13T02:56:34;4.95;;;1.20;;
66272;SDS011;58450;52.150;4.466;2023-07-13T02:59:04;3.80;;;1.20;;
66272;SDS011;58450;52.150;4.466;2023-07-13T03:01:32;5.70;;;1.48;;
66272;SDS011;58450;52.150;4.466;2023-07-13T03:04:02;2.97;;;1.17;;
66272;SDS011;58450;52.150;4.466;2023-07-13T03:06:31;4.13;;;1.40;;
66272;SDS011;58450;52.150;4.466;2023-07-13T03:08:59;5.88;;;1.50;;
66272;SDS011;58450;52.150;4.466;2023-07-13T03:11:27;5.78;;;1.50;;
66272;SDS011;58450;52.150;4.466;2023-07-13T03:13:55;7.35;;;2.00;;
66272;SDS011;58450;52.150;4.466;2023-07-13T03:16:24;5.70;;;1.80;;
66272;SDS011;58450;52.150;4.466;2023-07-13T03:18:52;5.85;;;1.85;;
66272;SDS011;58450;52.150;4.466;2023-07-13T03:21:21;7.05;;;2.00;;
66272;SDS011;58450;52.150;4.466;2023-07-13T03:23:49;8.90;;;2.05;;
66272;SDS011;58450;52.150;4.466;2023-07-13T03:26:19;6.72;;;1.77;;
66272;SDS011;58450;52.150;4.466;2023-07-13T03:28:47;5.68;;;1.80;;
66272;SDS011;58450;52.150;4.466;2023-07-13T03:31:16;9.25;;;2.05;;
66272;SDS011;58450;52.150;4.466;2023-07-13T03:33:46;6.88;;;1.98;;
66272;SDS011;58450;52.150;4.466;2023-07-13T03:36:16;7.35;;;1.90;;
66272;SDS011;58450;52.150;4.466;2023-07-13T03:38:48;10.75;;;2.20;;
66272;SDS011;58450;52.150;4.466;2023-07-13T03:41:18;7.15;;;1.95;;
66272;SDS011;58450;52.150;4.466;2023-07-13T03:43:47;9.85;;;2.33;;
66272;SDS011;58450;52.150;4.466;2023-07-13T03:46:15;9.02;;;2.30;;
66272;SDS011;58450;52.150;4.466;2023-07-13T03:48:45;9.15;;;2.42;;
66272;SDS011;58450;52.150;4.466;2023-07-13T03:51:15;8.25;;;2.15;;
66272;SDS011;58450;52.150;4.466;2023-07-13T03:53:45;7.43;;;2.08;;
66272;SDS011;58450;52.150;4.466;2023-07-13T03:56:15;9.02;;;2.45;;
66272;SDS011;58450;52.150;4.466;2023-07-13T03:58:45;7.70;;;2.08;;
66272;SDS011;58450;52.150;4.466;2023-07-13T04:01:16;6.88;;;2.28;;
66272;SDS011;58450;52.150;4.466;2023-07-13T04:03:46;10.57;;;2.30;;
66272;SDS011;58450;52.150;4.466;2023-07-13T04:06:15;7.45;;;2.17;;
66272;SDS011;58450;52.150;4.466;2023-07-13T04:08:49;8.23;;;2.45;;
66272;SDS011;58450;52.150;4.466;2023-07-13T04:11:19;9.98;;;2.28;;
66272;SDS011;58450;52.150;4.466;2023-07-13T04:13:49;8.75;;;2.10;;
66272;SDS011;58450;52.150;4.466;2023-07-13T04:16:18;7.03;;;2.22;;
66272;SDS011;58450;52.150;4.466;2023-07-13T04:18:47;8.82;;;2.60;;
66272;SDS011;58450;52.150;4.466;2023-07-13T04:21:16;10.98;;;2.28;;
66272;SDS011;58450;52.150;4.466;2023-07-13T04:23:44;10.93;;;2.70;;
66272;SDS011;58450;52.150;4.466;2023-07-13T04:26:13;8.77;;;1.98;;
66272;SDS011;58450;52.150;4.466;2023-07-13T04:28:40;8.35;;;2.58;;
66272;SDS011;58450;52.150;4.466;2023-07-13T04:31:08;10.75;;;2.67;;
66272;SDS011;58450;52.150;4.466;2023-07-13T04:33:36;7.82;;;2.30;;
66272;SDS011;58450;52.150;4.466;2023-07-13T04:36:04;11.10;;;3.00;;
66272;SDS011;58450;52.150;4.466;2023-07-13T04:38:35;11.63;;;2.33;;
66272;SDS011;58450;52.150;4.466;2023-07-13T04:41:04;7.70;;;2.40;;
66272;SDS011;58450;52.150;4.466;2023-07-13T04:43:36;9.65;;;2.72;;
66272;SDS011;58450;52.150;4.466;2023-07-13T04:46:04;7.82;;;2.42;;
66272;SDS011;58450;52.150;4.466;2023-07-13T04:48:34;7.35;;;2.15;;
66272;SDS011;58450;52.150;4.466;2023-07-13T04:51:02;7.43;;;2.47;;
66272;SDS011;58450;52.150;4.466;2023-07-13T04:53:30;10.60;;;2.30;;
66272;SDS011;58450;52.150;4.466;2023-07-13T04:56:00;5.55;;;1.95;;
66272;SDS011;58450;52.150;4.466;2023-07-13T04:58:28;7.70;;;2.50;;
66272;SDS011;58450;52.150;4.466;2023-07-13T05:01:00;7.60;;;2.60;;
66272;SDS011;58450;52.150;4.466;2023-07-13T05:03:30;9.73;;;2.38;;
66272;SDS011;58450;52.150;4.466;2023-07-13T05:05:59;11.13;;;2.70;;
66272;SDS011;58450;52.150;4.466;2023-07-13T05:08:30;9.57;;;2.40;;
66272;SDS011;58450;52.150;4.466;2023-07-13T05:10:58;10.15;;;2.53;;
66272;SDS011;58450;52.150;4.466;2023-07-13T05:13:27;6.95;;;2.17;;
66272;SDS011;58450;52.150;4.466;2023-07-13T05:15:55;6.60;;;2.05;;
66272;SDS011;58450;52.150;4.466;2023-07-13T05:18:27;9.25;;;2.40;;
66272;SDS011;58450;52.150;4.466;2023-07-13T05:20:58;7.70;;;2.08;;
66272;SDS011;58450;52.150;4.466;2023-07-13T05:25:57;8.38;;;1.98;;
66272;SDS011;58450;52.150;4.466;2023-07-13T05:28:25;8.80;;;2.28;;
66272;SDS011;58450;52.150;4.466;2023-07-13T05:30:54;7.45;;;2.38;;
66272;SDS011;58450;52.150;4.466;2023-07-13T05:33:22;7.85;;;1.90;;
66272;SDS011;58450;52.150;4.466;2023-07-13T05:35:52;8.80;;;2.63;;
66272;SDS011;58450;52.150;4.466;2023-07-13T05:38:19;8.07;;;2.00;;
66272;SDS011;58450;52.150;4.466;2023-07-13T05:40:48;7.22;;;2.22;;
66272;SDS011;58450;52.150;4.466;2023-07-13T05:43:16;8.15;;;1.90;;
66272;SDS011;58450;52.150;4.466;2023-07-13T05:45:44;7.93;;;2.22;;
66272;SDS011;58450;52.150;4.466;2023-07-13T05:48:12;12.20;;;2.50;;
66272;SDS011;58450;52.150;4.466;2023-07-13T05:50:40;10.32;;;2.30;;
66272;SDS011;58450;52.150;4.466;2023-07-13T05:53:09;5.57;;;2.03;;
66272;SDS011;58450;52.150;4.466;2023-07-13T05:55:40;7.38;;;2.38;;
66272;SDS011;58450;52.150;4.466;2023-07-13T05:58:09;8.05;;;2.67;;
66272;SDS011;58450;52.150;4.466;2023-07-13T06:00:38;6.53;;;2.05;;
66272;SDS011;58450;52.150;4.466;2023-07-13T06:03:06;6.65;;;2.40;;
66272;SDS011;58450;52.150;4.466;2023-07-13T06:05:34;6.05;;;2.15;;
66272;SDS011;58450;52.150;4.466;2023-07-13T06:08:05;6.72;;;1.90;;
66272;SDS011;58450;52.150;4.466;2023-07-13T06:10:36;7.80;;;2.30;;
66272;SDS011;58450;52.150;4.466;2023-07-13T06:13:04;5.30;;;2.20;;
66272;SDS011;58450;52.150;4.466;2023-07-13T06:15:32;7.78;;;2.20;;
66272;SDS011;58450;52.150;4.466;2023-07-13T06:18:00;7.57;;;2.17;;
66272;SDS011;58450;52.150;4.466;2023-07-13T06:20:28;6.47;;;1.92;;
66272;SDS011;58450;52.150;4.466;2023-07-13T06:22:57;9.23;;;2.30;;
66272;SDS011;58450;52.150;4.466;2023-07-13T06:25:25;7.10;;;2.28;;
66272;SDS011;58450;52.150;4.466;2023-07-13T06:27:55;7.20;;;2.22;;
66272;SDS011;58450;52.150;4.466;2023-07-13T06:30:23;7.63;;;2.03;;
66272;SDS011;58450;52.150;4.466;2023-07-13T06:32:51;7.57;;;2.10;;
66272;SDS011;58450;52.150;4.466;2023-07-13T06:35:19;6.38;;;2.03;;
66272;SDS011;58450;52.150;4.466;2023-07-13T06:37:47;5.55;;;1.95;;
66272;SDS011;58450;52.150;4.466;2023-07-13T06:40:14;7.13;;;1.95;;
66272;SDS011;58450;52.150;4.466;2023-07-13T06:42:43;7.88;;;1.92;;
66272;SDS011;58450;52.150;4.466;2023-07-13T06:45:12;8.63;;;2.45;;
66272;SDS011;58450;52.150;4.466;2023-07-13T06:47:39;5.88;;;1.90;;
66272;SDS011;58450;52.150;4.466;2023-07-13T06:50:07;6.65;;;1.83;;
66272;SDS011;58450;52.150;4.466;2023-07-13T06:52:36;6.07;;;2.10;;
66272;SDS011;58450;52.150;4.466;2023-07-13T06:55:04;6.57;;;1.92;;
66272;SDS011;58450;52.150;4.466;2023-07-13T06:57:33;5.88;;;2.00;;
66272;SDS011;58450;52.150;4.466;2023-07-13T07:00:01;7.05;;;1.67;;
66272;SDS011;58450;52.150;4.466;2023-07-13T07:02:30;6.85;;;1.90;;
66272;SDS011;58450;52.150;4.466;2023-07-13T07:04:58;7.38;;;1.88;;
66272;SDS011;58450;52.150;4.466;2023-07-13T07:07:26;7.72;;;2.05;;
66272;SDS011;58450;52.150;4.466;2023-07-13T07:09:54;5.55;;;1.88;;
66272;SDS011;58450;52.150;4.466;2023-07-13T07:12:22;8.98;;;2.17;;
66272;SDS011;58450;52.150;4.466;2023-07-13T07:14:49;9.00;;;1.90;;
66272;SDS011;58450;52.150;4.466;2023-07-13T07:17:17;5.88;;;1.85;;
66272;SDS011;58450;52.150;4.466;2023-07-13T07:19:46;5.05;;;1.92;;
66272;SDS011;58450;52.150;4.466;2023-07-13T07:22:14;6.60;;;2.15;;
66272;SDS011;58450;52.150;4.466;2023-07-13T07:24:42;3.72;;;1.80;;
66272;SDS011;58450;52.150;4.466;2023-07-13T07:27:10;4.43;;;1.92;;
66272;SDS011;58450;52.150;4.466;2023-07-13T07:29:38;4.13;;;1.73;;
66272;SDS011;58450;52.150;4.466;2023-07-13T07:32:06;5.00;;;1.70;;
66272;SDS011;58450;52.150;4.466;2023-07-13T07:34:34;4.88;;;1.85;;
66272;SDS011;58450;52.150;4.466;2023-07-13T07:37:04;4.82;;;1.50;;
66272;SDS011;58450;52.150;4.466;2023-07-13T07:39:32;4.78;;;1.50;;
66272;SDS011;58450;52.150;4.466;2023-07-13T07:42:00;3.45;;;1.38;;
66272;SDS011;58450;52.150;4.466;2023-07-13T07:44:27;3.75;;;1.30;;
66272;SDS011;58450;52.150;4.466;2023-07-13T07:46:55;4.88;;;1.55;;
66272;SDS011;58450;52.150;4.466;2023-07-13T07:49:23;11.60;;;2.33;;
66272;SDS011;58450;52.150;4.466;2023-07-13T07:51:51;7.65;;;2.13;;
66272;SDS011;58450;52.150;4.466;2023-07-13T07:54:20;8.00;;;2.20;;
66272;SDS011;58450;52.150;4.466;2023-07-13T07:56:48;5.20;;;1.90;;
66272;SDS011;58450;52.150;4.466;2023-07-13T07:59:16;7.22;;;1.95;;
66272;SDS011;58450;52.150;4.466;2023-07-13T08:01:44;7.25;;;2.13;;
66272;SDS011;58450;52.150;4.466;2023-07-13T08:04:13;6.22;;;2.33;;
66272;SDS011;58450;52.150;4.466;2023-07-13T08:06:41;7.13;;;1.95;;
66272;SDS011;58450;52.150;4.466;2023-07-13T08:09:09;8.50;;;1.98;;
66272;SDS011;58450;52.150;4.466;2023-07-13T08:11:38;4.30;;;1.80;;
66272;SDS011;58450;52.150;4.466;2023-07-13T08:14:06;6.07;;;2.10;;
66272;SDS011;58450;52.150;4.466;2023-07-13T08:16:35;7.60;;;2.10;;
66272;SDS011;58450;52.150;4.466;2023-07-13T08:19:03;7.72;;;2.10;;
66272;SDS011;58450;52.150;4.466;2023-07-13T08:21:31;6.95;;;2.20;;
66272;SDS011;58450;52.150;4.466;2023-07-13T08:23:59;7.75;;;2.45;;
66272;SDS011;58450;52.150;4.466;2023-07-13T08:26:27;6.75;;;2.35;;
66272;SDS011;58450;52.150;4.466;2023-07-13T08:28:56;7.82;;;2.28;;
66272;SDS011;58450;52.150;4.466;2023-07-13T08:31:24;7.47;;;2.25;;
66272;SDS011;58450;52.150;4.466;2023-07-13T08:33:52;7.88;;;2.40;;
66272;SDS011;58450;52.150;4.466;2023-07-13T08:36:19;6.47;;;1.83;;
66272;SDS011;58450;52.150;4.466;2023-07-13T08:38:47;7.85;;;2.33;;
66272;SDS011;58450;52.150;4.466;2023-07-13T08:41:15;7.05;;;2.10;;
66272;SDS011;58450;52.150;4.466;2023-07-13T08:43:46;6.10;;;2.08;;
66272;SDS011;58450;52.150;4.466;2023-07-13T08:46:21;6.60;;;2.30;;
66272;SDS011;58450;52.150;4.466;2023-07-13T08:48:56;10.40;;;2.40;;
66272;SDS011;58450;52.150;4.466;2023-07-13T08:51:33;5.88;;;2.30;;
66272;SDS011;58450;52.150;4.466;2023-07-13T08:54:12;8.02;;;2.15;;
66272;SDS011;58450;52.150;4.466;2023-07-13T08:56:48;5.22;;;2.22;;
66272;SDS011;58450;52.150;4.466;2023-07-13T08:59:21;7.60;;;2.25;;
66272;SDS011;58450;52.150;4.466;2023-07-13T09:02:04;8.00;;;2.10;;
66272;SDS011;58450;52.150;4.466;2023-07-13T09:04:49;9.18;;;2.50;;
66272;SDS011;58450;52.150;4.466;2023-07-13T09:07:26;9.70;;;2.10;;
66272;SDS011;58450;52.150;4.466;2023-07-13T09:10:12;8.00;;;2.20;;
66272;SDS011;58450;52.150;4.466;2023-07-13T09:12:46;8.07;;;2.40;;
66272;SDS011;58450;52.150;4.466;2023-07-13T09:15:31;8.95;;;2.30;;
66272;SDS011;58450;52.150;4.466;2023-07-13T09:18:06;5.22;;;2.20;;
66272;SDS011;58450;52.150;4.466;2023-07-13T09:20:42;7.88;;;2.20;;
66272;SDS011;58450;52.150;4.466;2023-07-13T09:23:20;4.05;;;1.80;;
66272;SDS011;58450;52.150;4.466;2023-07-13T09:25:51;8.32;;;2.53;;
66272;SDS011;58450;52.150;4.466;2023-07-13T09:28:28;8.82;;;2.40;;
66272;SDS011;58450;52.150;4.466;2023-07-13T09:31:04;5.45;;;2.42;;
66272;SDS011;58450;52.150;4.466;2023-07-13T09:33:39;7.82;;;2.15;;
66272;SDS011;58450;52.150;4.466;2023-07-13T09:36:16;7.22;;;2.15;;
66272;SDS011;58450;52.150;4.466;2023-07-13T09:38:48;6.60;;;2.42;;
66272;SDS011;58450;52.150;4.466;2023-07-13T09:41:33;6.95;;;2.67;;
66272;SDS011;58450;52.150;4.466;2023-07-13T09:44:14;9.93;;;2.28;;
66272;SDS011;58450;52.150;4.466;2023-07-13T09:46:46;7.57;;;2.20;;
66272;SDS011;58450;52.150;4.466;2023-07-13T09:49:24;7.00;;;2.08;;
66272;SDS011;58450;52.150;4.466;2023-07-13T09:54:26;4.13;;;1.80;;
66272;SDS011;58450;52.150;4.466;2023-07-13T09:56:55;7.68;;;2.13;;
66272;SDS011;58450;52.150;4.466;2023-07-13T09:59:24;6.60;;;2.05;;
66272;SDS011;58450;52.150;4.466;2023-07-13T10:01:57;6.75;;;2.20;;
66272;SDS011;58450;52.150;4.466;2023-07-13T10:04:32;7.85;;;2.20;;
66272;SDS011;58450;52.150;4.466;2023-07-13T10:07:05;4.93;;;1.88;;
66272;SDS011;58450;52.150;4.466;2023-07-13T10:12:04;6.25;;;1.92;;
66272;SDS011;58450;52.150;4.466;2023-07-13T10:14:41;6.18;;;2.50;;
66272;SDS011;58450;52.150;4.466;2023-07-13T10:17:10;6.47;;;2.05;;
66272;SDS011;58450;52.150;4.466;2023-07-13T10:19:42;8.27;;;2.28;;
66272;SDS011;58450;52.150;4.466;2023-07-13T10:22:12;6.03;;;2.00;;
66272;SDS011;58450;52.150;4.466;2023-07-13T10:24:50;12.40;;;2.50;;
66272;SDS011;58450;52.150;4.466;2023-07-13T10:27:19;8.68;;;2.50;;
66272;SDS011;58450;52.150;4.466;2023-07-13T10:29:56;7.18;;;2.35;;
66272;SDS011;58450;52.150;4.466;2023-07-13T10:32:36;6.68;;;2.40;;
66272;SDS011;58450;52.150;4.466;2023-07-13T10:35:08;6.82;;;2.50;;
66272;SDS011;58450;52.150;4.466;2023-07-13T10:37:42;5.93;;;2.40;;
66272;SDS011;58450;52.150;4.466;2023-07-13T10:40:19;10.15;;;2.70;;
66272;SDS011;58450;52.150;4.466;2023-07-13T10:42:53;6.43;;;1.92;;
66272;SDS011;58450;52.150;4.466;2023-07-13T10:45:25;6.40;;;2.00;;
66272;SDS011;58450;52.150;4.466;2023-07-13T10:47:59;7.82;;;2.40;;
66272;SDS011;58450;52.150;4.466;2023-07-13T10:50:30;7.88;;;2.00;;
66272;SDS011;58450;52.150;4.466;2023-07-13T10:53:01;6.82;;;2.67;;
66272;SDS011;58450;52.150;4.466;2023-07-13T10:58:28;9.15;;;2.38;;
66272;SDS011;58450;52.150;4.466;2023-07-13T11:01:03;11.20;;;2.63;;
66272;SDS011;58450;52.150;4.466;2023-07-13T11:03:38;6.72;;;2.17;;
66272;SDS011;58450;52.150;4.466;2023-07-13T11:06:28;4.47;;;2.00;;
66272;SDS011;58450;52.150;4.466;2023-07-13T11:09:17;8.18;;;2.40;;
66272;SDS011;58450;52.150;4.466;2023-07-13T11:11:58;5.77;;;2.20;;
66272;SDS011;58450;52.150;4.466;2023-07-13T11:14:30;4.53;;;2.08;;
66272;SDS011;58450;52.150;4.466;2023-07-13T11:20:24;5.35;;;2.20;;
66272;SDS011;58450;52.150;4.466;2023-07-13T11:28:30;7.78;;;2.10;;
66272;SDS011;58450;52.150;4.466;2023-07-13T11:31:03;5.57;;;2.10;;
66272;SDS011;58450;52.150;4.466;2023-07-13T11:33:50;6.60;;;2.20;;
66272;SDS011;58450;52.150;4.466;2023-07-13T11:36:30;7.82;;;2.15;;
66272;SDS011;58450;52.150;4.466;2023-07-13T11:39:11;9.00;;;2.47;;
66272;SDS011;58450;52.150;4.466;2023-07-13T11:41:49;6.18;;;2.03;;
66272;SDS011;58450;52.150;4.466;2023-07-13T11:44:22;4.18;;;1.95;;
66272;SDS011;58450;52.150;4.466;2023-07-13T11:46:52;6.78;;;2.20;;
66272;SDS011;58450;52.150;4.466;2023-07-13T11:49:30;7.75;;;2.40;;
66272;SDS011;58450;52.150;4.466;2023-07-13T11:51:59;8.25;;;2.40;;
66272;SDS011;58450;52.150;4.466;2023-07-13T11:54:30;7.32;;;2.30;;
66272;SDS011;58450;52.150;4.466;2023-07-13T11:57:01;8.10;;;2.38;;
66272;SDS011;58450;52.150;4.466;2023-07-13T11:59:42;5.07;;;1.95;;
66272;SDS011;58450;52.150;4.466;2023-07-13T12:02:14;9.77;;;2.10;;
66272;SDS011;58450;52.150;4.466;2023-07-13T12:04:54;6.15;;;1.95;;
66272;SDS011;58450;52.150;4.466;2023-07-13T12:07:23;9.75;;;2.10;;
66272;SDS011;58450;52.150;4.466;2023-07-13T12:10:01;8.68;;;2.38;;
66272;SDS011;58450;52.150;4.466;2023-07-13T12:12:30;5.85;;;2.00;;
66272;SDS011;58450;52.150;4.466;2023-07-13T12:14:58;4.45;;;2.30;;
66272;SDS011;58450;52.150;4.466;2023-07-13T12:17:26;8.55;;;2.10;;
66272;SDS011;58450;52.150;4.466;2023-07-13T12:19:55;5.53;;;2.05;;
66272;SDS011;58450;52.150;4.466;2023-07-13T12:22:24;8.15;;;2.15;;
66272;SDS011;58450;52.150;4.466;2023-07-13T12:24:52;7.78;;;2.10;;
66272;SDS011;58450;52.150;4.466;2023-07-13T12:27:23;7.20;;;2.25;;
66272;SDS011;58450;52.150;4.466;2023-07-13T12:29:57;4.38;;;1.80;;
66272;SDS011;58450;52.150;4.466;2023-07-13T12:32:28;3.88;;;1.60;;
66272;SDS011;58450;52.150;4.466;2023-07-13T12:34:57;11.48;;;2.30;;
66272;SDS011;58450;52.150;4.466;2023-07-13T12:37:41;5.55;;;1.77;;
66272;SDS011;58450;52.150;4.466;2023-07-13T12:40:12;4.22;;;1.88;;
66272;SDS011;58450;52.150;4.466;2023-07-13T12:42:43;4.38;;;1.60;;
66272;SDS011;58450;52.150;4.466;2023-07-13T12:45:17;6.75;;;2.03;;
66272;SDS011;58450;52.150;4.466;2023-07-13T12:47:49;2.97;;;1.65;;
66272;SDS011;58450;52.150;4.466;2023-07-13T12:50:28;12.15;;;1.95;;
66272;SDS011;58450;52.150;4.466;2023-07-13T12:53:03;7.38;;;2.20;;
66272;SDS011;58450;52.150;4.466;2023-07-13T12:55:40;5.53;;;1.88;;
66272;SDS011;58450;52.150;4.466;2023-07-13T12:58:18;4.43;;;1.52;;
66272;SDS011;58450;52.150;4.466;2023-07-13T13:00:53;5.40;;;1.65;;
66272;SDS011;58450;52.150;4.466;2023-07-13T13:03:25;4.85;;;1.67;;
66272;SDS011;58450;52.150;4.466;2023-07-13T13:05:59;5.55;;;1.73;;
66272;SDS011;58450;52.150;4.466;2023-07-13T13:08:30;6.93;;;2.20;;
66272;SDS011;58450;52.150;4.466;2023-07-13T13:10:59;4.78;;;1.73;;
66272;SDS011;58450;52.150;4.466;2023-07-13T13:13:29;11.27;;;1.95;;
66272;SDS011;58450;52.150;4.466;2023-07-13T13:16:01;9.35;;;2.20;;
66272;SDS011;58450;52.150;4.466;2023-07-13T13:18:31;5.00;;;1.67;;
66272;SDS011;58450;52.150;4.466;2023-07-13T13:21:01;6.75;;;1.80;;
66272;SDS011;58450;52.150;4.466;2023-07-13T13:23:29;4.50;;;1.48;;
66272;SDS011;58450;52.150;4.466;2023-07-13T13:25:57;2.47;;;1.42;;
66272;SDS011;58450;52.150;4.466;2023-07-13T13:28:26;4.38;;;1.80;;
66272;SDS011;58450;52.150;4.466;2023-07-13T13:30:55;9.75;;;2.05;;
66272;SDS011;58450;52.150;4.466;2023-07-13T13:33:23;5.55;;;1.88;;
66272;SDS011;58450;52.150;4.466;2023-07-13T13:35:51;4.53;;;1.40;;
66272;SDS011;58450;52.150;4.466;2023-07-13T13:38:20;5.35;;;1.80;;
66272;SDS011;58450;52.150;4.466;2023-07-13T13:40:54;7.57;;;1.77;;
66272;SDS011;58450;52.150;4.466;2023-07-13T13:43:22;3.40;;;1.30;;
66272;SDS011;58450;52.150;4.466;2023-07-13T13:45:53;4.10;;;1.70;;
66272;SDS011;58450;52.150;4.466;2023-07-13T13:48:26;5.45;;;1.67;;
66272;SDS011;58450;52.150;4.466;2023-07-13T13:50:59;4.72;;;1.33;;
66272;SDS011;58450;52.150;4.466;2023-07-13T13:53:33;5.32;;;1.70;;
66272;SDS011;58450;52.150;4.466;2023-07-13T13:56:00;5.68;;;1.60;;
66272;SDS011;58450;52.150;4.466;2023-07-13T13:58:28;8.98;;;2.22;;
66272;SDS011;58450;52.150;4.466;2023-07-13T14:00:58;4.57;;;1.80;;
66272;SDS011;58450;52.150;4.466;2023-07-13T14:03:25;4.53;;;1.42;;
66272;SDS011;58450;52.150;4.466;2023-07-13T14:05:54;4.20;;;1.40;;
66272;SDS011;58450;52.150;4.466;2023-07-13T14:08:23;4.75;;;1.83;;
66272;SDS011;58450;52.150;4.466;2023-07-13T14:10:51;8.02;;;1.70;;
66272;SDS011;58450;52.150;4.466;2023-07-13T14:13:24;4.65;;;1.63;;
66272;SDS011;58450;52.150;4.466;2023-07-13T14:16:00;5.30;;;1.83;;
66272;SDS011;58450;52.150;4.466;2023-07-13T14:18:27;4.07;;;1.90;;
66272;SDS011;58450;52.150;4.466;2023-07-13T14:20:55;4.30;;;1.70;;
66272;SDS011;58450;52.150;4.466;2023-07-13T14:23:23;5.60;;;2.03;;
66272;SDS011;58450;52.150;4.466;2023-07-13T14:25:51;3.30;;;1.55;;
66272;SDS011;58450;52.150;4.466;2023-07-13T14:28:20;3.90;;;1.50;;
66272;SDS011;58450;52.150;4.466;2023-07-13T14:30:51;5.57;;;1.92;;
66272;SDS011;58450;52.150;4.466;2023-07-13T14:33:21;6.65;;;1.83;;
66272;SDS011;58450;52.150;4.466;2023-07-13T14:35:49;4.82;;;1.48;;
66272;SDS011;58450;52.150;4.466;2023-07-13T14:38:18;5.13;;;1.60;;
66272;SDS011;58450;52.150;4.466;2023-07-13T14:40:47;6.20;;;1.60;;
66272;SDS011;58450;52.150;4.466;2023-07-13T14:43:16;5.90;;;1.67;;
66272;SDS011;58450;52.150;4.466;2023-07-13T14:45:45;4.82;;;1.95;;
66272;SDS011;58450;52.150;4.466;2023-07-13T14:48:17;6.43;;;1.90;;
66272;SDS011;58450;52.150;4.466;2023-07-13T14:50:51;5.78;;;1.75;;
66272;SDS011;58450;52.150;4.466;2023-07-13T14:53:27;5.40;;;1.88;;
66272;SDS011;58450;52.150;4.466;2023-07-13T14:55:55;6.03;;;1.88;;
66272;SDS011;58450;52.150;4.466;2023-07-13T14:58:23;4.03;;;1.42;;
66272;SDS011;58450;52.150;4.466;2023-07-13T15:00:50;4.35;;;1.58;;
66272;SDS011;58450;52.150;4.466;2023-07-13T15:03:23;4.22;;;1.70;;
66272;SDS011;58450;52.150;4.466;2023-07-13T15:05:52;7.25;;;1.98;;
66272;SDS011;58450;52.150;4.466;2023-07-13T15:08:20;5.47;;;1.52;;
66272;SDS011;58450;52.150;4.466;2023-07-13T15:10:48;3.08;;;1.52;;
66272;SDS011;58450;52.150;4.466;2023-07-13T15:13:16;4.13;;;1.65;;
66272;SDS011;58450;52.150;4.466;2023-07-13T15:15:47;3.65;;;1.40;;
66272;SDS011;58450;52.150;4.466;2023-07-13T15:18:19;4.32;;;1.50;;
66272;SDS011;58450;52.150;4.466;2023-07-13T15:20:51;4.32;;;1.45;;
66272;SDS011;58450;52.150;4.466;2023-07-13T15:23:21;5.20;;;1.50;;
66272;SDS011;58450;52.150;4.466;2023-07-13T15:25:51;4.57;;;1.33;;
66272;SDS011;58450;52.150;4.466;2023-07-13T15:28:19;3.10;;;1.40;;